createdAt,value
2018-07-07T00:01:50.852Z,25.80
2018-07-07T00:04:20.092Z,25.80
2018-07-07T00:06:49.365Z,25.80
2018-07-07T00:09:18.715Z,25.80
2018-07-07T00:16:45.619Z,25.80
2018-07-07T00:19:14.946Z,25.80
2018-07-07T00:21:44.215Z,25.80
2018-07-07T00:24:13.565Z,25.80
2018-07-07T00:26:42.854Z,25.80
2018-07-07T00:29:12.132Z,25.70
2018-07-07T00:31:41.497Z,25.70
2018-07-07T00:34:10.802Z,25.70
2018-07-07T00:39:08.890Z,25.70
2018-07-07T00:44:06.938Z,25.70
2018-07-07T00:46:36.285Z,25.70
2018-07-07T00:49:05.713Z,25.70
2018-07-07T00:51:35.215Z,25.70
2018-07-07T00:54:04.620Z,25.70
2018-07-07T00:56:33.897Z,25.60
2018-07-07T00:59:03.178Z,25.60
2018-07-07T01:01:32.568Z,25.60
2018-07-07T01:04:02.023Z,25.50
2018-07-07T01:06:31.609Z,25.50
2018-07-07T01:09:00.922Z,25.50
2018-07-07T01:11:30.427Z,25.50
2018-07-07T01:13:59.758Z,25.50
2018-07-07T01:16:29.120Z,25.50
2018-07-07T01:18:58.469Z,25.50
2018-07-07T01:21:27.768Z,25.40
2018-07-07T01:23:57.106Z,25.40
2018-07-07T01:28:55.249Z,25.40
2018-07-07T01:31:24.581Z,25.40
2018-07-07T01:33:54.003Z,25.40
2018-07-07T01:38:52.098Z,25.30
2018-07-07T01:41:21.419Z,25.40
2018-07-07T01:43:50.730Z,25.30
2018-07-07T01:46:20.037Z,25.30
2018-07-07T01:48:49.301Z,25.30
2018-07-07T01:53:47.403Z,25.20
2018-07-07T01:56:16.687Z,25.20
2018-07-07T02:01:14.960Z,25.20
2018-07-07T02:06:13.089Z,25.20
2018-07-07T02:08:42.569Z,25.20
2018-07-07T02:16:09.488Z,25.20
2018-07-07T02:18:38.796Z,25.20
2018-07-07T02:23:37.038Z,25.20
2018-07-07T02:26:06.458Z,25.20
2018-07-07T02:28:35.756Z,25.20
2018-07-07T02:31:05.135Z,25.20
2018-07-07T02:38:32.134Z,25.10
2018-07-07T02:41:01.455Z,25.10
2018-07-07T02:43:31.223Z,25.10
2018-07-07T02:48:29.424Z,25.10
2018-07-07T02:50:58.741Z,25.10
2018-07-07T02:53:28.121Z,25.00
2018-07-07T02:58:26.217Z,25.10
2018-07-07T03:03:24.416Z,25.00
2018-07-07T03:05:53.858Z,25.10
2018-07-07T03:08:23.263Z,25.10
2018-07-07T03:10:52.542Z,25.00
2018-07-07T03:13:21.923Z,25.00
2018-07-07T03:15:51.262Z,25.00
2018-07-07T03:18:20.575Z,25.00
2018-07-07T03:20:49.891Z,25.00
2018-07-07T03:23:19.270Z,25.00
2018-07-07T03:25:48.713Z,25.00
2018-07-07T03:30:46.926Z,25.00
2018-07-07T03:33:16.244Z,25.10
2018-07-07T03:35:45.531Z,25.10
2018-07-07T03:38:14.880Z,25.10
2018-07-07T03:40:44.184Z,25.10
2018-07-07T03:45:42.389Z,25.00
2018-07-07T03:48:11.804Z,25.00
2018-07-07T03:50:42.169Z,25.00
2018-07-07T03:53:11.584Z,25.00
2018-07-07T03:55:41.043Z,25.00
2018-07-07T03:58:11.114Z,24.90
2018-07-07T04:00:40.540Z,25.00
2018-07-07T04:05:38.733Z,25.00
2018-07-07T04:08:08.051Z,25.00
2018-07-07T04:10:37.370Z,24.90
2018-07-07T04:13:06.990Z,24.90
2018-07-07T04:15:36.399Z,24.90
2018-07-07T04:18:06.005Z,24.90
2018-07-07T04:20:35.354Z,24.90
2018-07-07T04:23:04.642Z,24.90
2018-07-07T04:25:33.930Z,24.90
2018-07-07T04:28:03.321Z,24.90
2018-07-07T04:30:32.626Z,24.90
2018-07-07T04:33:01.969Z,24.90
2018-07-07T04:38:00.058Z,24.90
2018-07-07T04:42:58.333Z,24.80
2018-07-07T04:45:27.648Z,24.90
2018-07-07T04:47:56.926Z,24.90
2018-07-07T04:50:26.238Z,24.80
2018-07-07T04:57:53.517Z,24.80
2018-07-07T05:00:22.813Z,24.80
2018-07-07T05:02:52.191Z,24.70
2018-07-07T05:05:21.604Z,24.80
2018-07-07T05:07:50.884Z,24.80
2018-07-07T05:10:20.493Z,24.80
2018-07-07T05:12:49.854Z,24.70
2018-07-07T05:15:19.280Z,24.80
2018-07-07T05:17:48.678Z,24.70
2018-07-07T05:20:18.451Z,24.80
2018-07-07T05:25:16.861Z,24.80
2018-07-07T05:27:47.145Z,24.80
2018-07-07T05:30:16.525Z,24.80
2018-07-07T05:32:46.099Z,24.80
2018-07-07T05:35:16.673Z,24.80
2018-07-07T05:37:46.046Z,24.80
2018-07-07T05:40:15.396Z,24.80
2018-07-07T05:42:44.742Z,24.80
2018-07-07T05:45:14.062Z,24.80
2018-07-07T05:47:43.425Z,24.90
2018-07-07T05:50:12.700Z,24.80
2018-07-07T05:52:42.008Z,24.80
2018-07-07T05:55:11.281Z,24.90
2018-07-07T05:57:40.582Z,24.80
2018-07-07T06:00:10.011Z,24.90
2018-07-07T06:02:39.321Z,24.80
2018-07-07T06:07:37.416Z,24.90
2018-07-07T06:12:35.561Z,24.90
2018-07-07T06:15:05.422Z,24.90
2018-07-07T06:20:03.654Z,24.90
2018-07-07T06:22:33.039Z,25.00
2018-07-07T06:25:02.372Z,25.00
2018-07-07T06:27:31.669Z,24.90
2018-07-07T06:30:01.015Z,25.00
2018-07-07T06:32:30.344Z,25.00
2018-07-07T06:34:59.688Z,25.00
2018-07-07T06:37:29.049Z,25.10
2018-07-07T06:39:58.336Z,25.10
2018-07-07T06:42:27.674Z,25.10
2018-07-07T06:44:57.075Z,25.20
2018-07-07T06:47:26.503Z,25.20
2018-07-07T06:52:24.634Z,25.20
2018-07-07T06:54:53.976Z,25.20
2018-07-07T06:57:23.267Z,25.30
2018-07-07T06:59:52.525Z,25.30
2018-07-07T07:02:21.896Z,25.30
2018-07-07T07:04:51.301Z,25.40
2018-07-07T07:12:18.347Z,25.50
2018-07-07T07:14:47.715Z,25.50
2018-07-07T07:17:17.118Z,25.50
2018-07-07T07:19:46.557Z,25.50
2018-07-07T07:22:15.876Z,25.50
2018-07-07T07:24:45.325Z,25.50
2018-07-07T07:27:14.607Z,25.50
2018-07-07T07:29:43.989Z,25.50
2018-07-07T07:32:13.276Z,25.50
2018-07-07T07:34:42.549Z,25.50
2018-07-07T07:37:11.927Z,25.50
2018-07-07T07:39:41.887Z,25.50
2018-07-07T07:42:11.250Z,25.50
2018-07-07T07:44:40.683Z,25.50
2018-07-07T07:47:10.131Z,25.40
2018-07-07T07:49:39.441Z,25.40
2018-07-07T07:52:08.839Z,25.40
2018-07-07T07:57:07.064Z,25.40
2018-07-07T07:59:36.468Z,25.40
2018-07-07T08:02:05.780Z,25.40
2018-07-07T08:04:35.159Z,25.40
2018-07-07T08:07:04.490Z,25.50
2018-07-07T08:09:33.786Z,25.50
2018-07-07T08:12:03.081Z,25.60
2018-07-07T08:14:32.731Z,25.60
2018-07-07T08:17:03.083Z,25.70
2018-07-07T08:19:32.419Z,25.70
2018-07-07T08:22:03.045Z,25.80
2018-07-07T08:24:32.411Z,25.80
2018-07-07T08:27:01.701Z,25.90
2018-07-07T08:29:31.008Z,25.90
2018-07-07T08:32:00.361Z,26.10
2018-07-07T08:34:29.714Z,26.10
2018-07-07T08:36:59.114Z,26.20
2018-07-07T08:39:28.456Z,26.20
2018-07-07T08:41:57.798Z,26.30
2018-07-07T08:44:27.214Z,26.30
2018-07-07T08:46:56.536Z,26.30
2018-07-07T08:49:26.633Z,26.30
2018-07-07T08:54:24.924Z,26.30
2018-07-07T08:56:55.144Z,26.30
2018-07-07T08:59:24.607Z,26.40
2018-07-07T09:01:54.820Z,26.30
2018-07-07T09:04:24.198Z,26.30
2018-07-07T09:06:54.390Z,26.30
2018-07-07T09:09:26.498Z,26.40
2018-07-07T09:11:55.954Z,26.40
2018-07-07T09:16:38.316Z,26.50
2018-07-07T09:19:08.187Z,26.70
2018-07-07T09:21:37.516Z,26.70
2018-07-07T09:24:06.993Z,26.80
2018-07-07T09:26:36.336Z,26.80
2018-07-07T09:29:05.950Z,27.00
2018-07-07T09:31:35.224Z,27.10
2018-07-07T09:34:04.537Z,27.20
2018-07-07T09:36:33.898Z,27.40
2018-07-07T09:39:03.270Z,27.50
2018-07-07T09:41:32.569Z,27.50
2018-07-07T09:44:02.025Z,27.50
2018-07-07T09:46:31.783Z,27.60
2018-07-07T09:49:01.147Z,27.60
2018-07-07T09:51:30.528Z,27.70
2018-07-07T09:53:59.886Z,27.80
2018-07-07T09:56:29.278Z,27.90
2018-07-07T09:58:58.643Z,27.90
2018-07-07T10:01:28.005Z,27.90
2018-07-07T10:03:57.252Z,28.00
2018-07-07T10:06:26.754Z,28.10
2018-07-07T10:08:56.078Z,28.30
2018-07-07T10:11:25.311Z,28.40
2018-07-07T10:13:54.796Z,28.60
2018-07-07T10:16:24.169Z,28.70
2018-07-07T10:18:53.462Z,28.80
2018-07-07T10:21:22.951Z,28.90
2018-07-07T10:23:52.244Z,28.90
2018-07-07T10:26:21.622Z,29.20
2018-07-07T10:28:51.520Z,29.30
2018-07-07T10:31:20.858Z,29.40
2018-07-07T10:33:50.254Z,29.40
2018-07-07T10:38:48.408Z,29.80
2018-07-07T10:41:17.675Z,29.80
2018-07-07T10:43:46.955Z,29.90
2018-07-07T10:46:16.308Z,30.00
2018-07-07T10:48:45.660Z,30.00
2018-07-07T10:51:14.929Z,30.10
2018-07-07T10:53:44.315Z,30.20
2018-07-07T10:56:13.620Z,30.20
2018-07-07T10:58:42.931Z,30.10
2018-07-07T11:01:12.268Z,30.20
2018-07-07T11:03:41.661Z,30.20
2018-07-07T11:06:11.075Z,30.30
2018-07-07T11:08:40.471Z,30.30
2018-07-07T11:11:09.957Z,30.30
2018-07-07T11:13:40.173Z,30.40
2018-07-07T11:16:09.611Z,30.40
2018-07-07T11:18:39.880Z,30.40
2018-07-07T11:21:09.393Z,30.30
2018-07-07T11:23:39.761Z,30.20
2018-07-07T11:28:38.796Z,30.00
2018-07-07T11:31:08.180Z,30.00
2018-07-07T11:33:39.966Z,30.00
2018-07-07T11:36:09.306Z,30.00
2018-07-07T11:38:38.739Z,29.80
2018-07-07T11:41:08.306Z,29.60
2018-07-07T11:43:39.497Z,29.40
2018-07-07T11:46:08.885Z,29.10
2018-07-07T11:48:38.293Z,28.90
2018-07-07T11:51:07.751Z,28.70
2018-07-07T11:53:37.072Z,28.40
2018-07-07T11:56:07.535Z,28.40
2018-07-07T11:58:36.919Z,28.40
2018-07-07T12:01:06.200Z,28.40
2018-07-07T12:06:04.397Z,28.50
2018-07-07T12:08:33.736Z,28.60
2018-07-07T12:11:03.047Z,28.60
2018-07-07T12:13:32.420Z,28.60
2018-07-07T12:16:02.551Z,28.60
2018-07-07T12:18:31.885Z,28.50
2018-07-07T12:21:01.273Z,28.50
2018-07-07T12:23:30.604Z,28.50
2018-07-07T12:28:28.699Z,28.30
2018-07-07T12:33:26.870Z,28.10
2018-07-07T12:35:56.241Z,28.10
2018-07-07T12:38:25.557Z,28.10
2018-07-07T12:40:55.264Z,28.10
2018-07-07T12:43:24.596Z,28.20
2018-07-07T12:48:22.755Z,28.20
2018-07-07T12:50:52.109Z,28.20
2018-07-07T12:53:21.542Z,28.20
2018-07-07T12:55:50.966Z,28.40
2018-07-07T12:58:20.328Z,28.40
2018-07-07T13:00:49.676Z,28.50
2018-07-07T13:03:19.065Z,28.50
2018-07-07T13:05:48.440Z,28.70
2018-07-07T13:08:17.784Z,28.70
2018-07-07T13:10:47.121Z,28.70
2018-07-07T13:13:16.423Z,28.70
2018-07-07T13:15:45.714Z,28.80
2018-07-07T13:20:43.883Z,28.80
2018-07-07T13:23:13.197Z,28.80
2018-07-07T13:28:11.708Z,28.90
2018-07-07T13:30:41.071Z,28.90
2018-07-07T13:33:10.606Z,28.90
2018-07-07T13:35:39.961Z,28.90
2018-07-07T13:38:09.303Z,28.90
2018-07-07T13:40:38.795Z,29.00
2018-07-07T13:43:08.196Z,29.00
2018-07-07T13:45:37.579Z,29.10
2018-07-07T13:48:07.091Z,29.00
2018-07-07T13:50:36.338Z,29.00
2018-07-07T13:53:05.665Z,29.00
2018-07-07T13:55:35.046Z,29.00
2018-07-07T13:58:04.352Z,28.90
2018-07-07T14:00:33.686Z,28.80
2018-07-07T14:03:03.085Z,28.80
2018-07-07T14:05:32.378Z,28.60
2018-07-07T14:08:01.792Z,28.70
2018-07-07T14:10:31.131Z,28.60
2018-07-07T14:15:29.239Z,28.60
2018-07-07T14:17:58.523Z,28.60
2018-07-07T14:20:27.803Z,28.60
2018-07-07T14:22:57.162Z,28.60
2018-07-07T14:25:26.422Z,28.60
2018-07-07T14:32:53.610Z,28.50
2018-07-07T14:35:23.426Z,28.50
2018-07-07T14:37:53.976Z,28.50
2018-07-07T14:40:23.710Z,28.50
2018-07-07T14:42:55.608Z,28.50
2018-07-07T14:45:29.907Z,28.40
2018-07-07T14:48:01.891Z,28.40
2018-07-07T14:50:31.433Z,28.30
2018-07-07T14:53:00.781Z,28.30
2018-07-07T14:55:30.480Z,28.40
2018-07-07T14:57:59.916Z,28.30
2018-07-07T15:00:29.702Z,28.20
2018-07-07T15:02:59.394Z,28.10
2018-07-07T15:05:28.721Z,28.10
2018-07-07T15:07:57.970Z,28.20
2018-07-07T15:10:27.333Z,28.20
2018-07-07T15:15:25.607Z,28.30
2018-07-07T15:17:54.941Z,28.30
2018-07-07T15:20:24.332Z,28.30
2018-07-07T15:22:53.943Z,28.30
2018-07-07T15:25:23.338Z,28.30
2018-07-07T15:27:52.696Z,28.30
2018-07-07T15:30:21.991Z,28.40
2018-07-07T15:32:51.323Z,28.50
2018-07-07T15:35:20.746Z,28.70
2018-07-07T15:37:50.064Z,28.80
2018-07-07T15:40:19.433Z,28.80
2018-07-07T15:42:48.825Z,28.80
2018-07-07T15:45:18.172Z,28.70
2018-07-07T15:47:47.794Z,28.60
2018-07-07T15:50:17.549Z,28.70
2018-07-07T15:52:46.925Z,28.70
2018-07-07T15:55:16.240Z,28.70
2018-07-07T15:57:45.546Z,28.70
2018-07-07T16:00:14.887Z,28.70
2018-07-07T16:02:44.246Z,28.70
2018-07-07T16:05:13.639Z,28.80
2018-07-07T16:07:42.955Z,28.80
2018-07-07T16:10:12.389Z,28.80
2018-07-07T16:12:41.738Z,28.90
2018-07-07T16:15:11.016Z,28.80
2018-07-07T16:20:09.120Z,28.70
2018-07-07T16:22:38.424Z,28.70
2018-07-07T16:25:07.771Z,28.70
2018-07-07T16:27:37.051Z,28.60
2018-07-07T16:30:06.502Z,28.70
2018-07-07T16:32:35.855Z,28.60
2018-07-07T16:35:05.284Z,28.70
2018-07-07T16:37:34.676Z,28.70
2018-07-07T16:42:34.268Z,28.70
2018-07-07T16:45:04.736Z,28.70
2018-07-07T16:47:34.170Z,28.80
2018-07-07T16:50:03.723Z,28.80
2018-07-07T16:52:33.222Z,28.80
2018-07-07T16:55:02.916Z,28.80
2018-07-07T16:57:32.312Z,28.80
2018-07-07T17:00:01.822Z,28.80
2018-07-07T17:02:31.503Z,28.90
2018-07-07T17:05:01.031Z,28.80
2018-07-07T17:07:30.573Z,28.90
2018-07-07T17:10:00.003Z,28.80
2018-07-07T17:12:29.856Z,28.80
2018-07-07T17:14:59.593Z,28.80
2018-07-07T17:17:29.421Z,28.80
2018-07-07T17:22:27.740Z,28.80
2018-07-07T17:24:57.944Z,28.80
2018-07-07T17:27:27.491Z,28.80
2018-07-07T17:29:58.463Z,28.80
2018-07-07T17:32:27.865Z,28.70
2018-07-07T17:34:58.339Z,28.70
2018-07-07T17:37:27.695Z,28.70
2018-07-07T17:39:57.250Z,28.70
2018-07-07T17:42:26.673Z,28.60
2018-07-07T17:44:56.366Z,28.60
2018-07-07T17:47:25.773Z,28.50
2018-07-07T17:49:55.327Z,28.50
2018-07-07T17:57:22.665Z,28.40
2018-07-07T17:59:53.125Z,28.40
2018-07-07T18:02:22.727Z,28.30
2018-07-07T18:04:52.222Z,28.20
2018-07-07T18:07:21.485Z,28.10
2018-07-07T18:09:50.886Z,28.00
2018-07-07T18:12:20.138Z,28.00
2018-07-07T18:14:49.449Z,27.90
2018-07-07T18:17:18.870Z,27.90
2018-07-07T18:19:48.246Z,28.00
2018-07-07T18:22:17.531Z,28.00
2018-07-07T18:24:46.859Z,28.00
2018-07-07T18:29:45.503Z,28.00
2018-07-07T18:32:14.922Z,28.00
2018-07-07T18:34:44.206Z,28.00
2018-07-07T18:37:13.478Z,28.00
2018-07-07T18:39:42.871Z,28.00
2018-07-07T18:44:41.155Z,28.00
2018-07-07T18:47:10.497Z,28.00
2018-07-07T18:49:39.926Z,28.00
2018-07-07T18:52:09.563Z,28.00
2018-07-07T18:54:38.977Z,28.00
2018-07-07T18:57:08.337Z,28.00
2018-07-07T18:59:38.136Z,28.00
2018-07-07T19:02:07.598Z,28.00
2018-07-07T19:04:36.984Z,28.00
2018-07-07T19:07:06.498Z,28.00
2018-07-07T19:12:04.698Z,28.00
2018-07-07T19:14:34.100Z,27.90
2018-07-07T19:17:03.428Z,27.90
2018-07-07T19:19:32.766Z,27.90
2018-07-07T19:22:07.191Z,27.80
2018-07-07T19:24:41.581Z,27.80
2018-07-07T19:27:10.903Z,27.70
2018-07-07T19:29:40.317Z,27.70
2018-07-07T19:32:14.729Z,27.60
2018-07-07T19:34:49.173Z,27.50
2018-07-07T19:39:49.416Z,27.40
2018-07-07T19:44:47.746Z,27.40
2018-07-07T19:47:17.049Z,27.40
2018-07-07T19:49:46.458Z,27.40
2018-07-07T19:52:15.882Z,27.40
2018-07-07T19:54:45.358Z,27.40
2018-07-07T19:57:14.981Z,27.40
2018-07-07T19:59:44.758Z,27.40
2018-07-07T20:02:15.021Z,27.40
2018-07-07T20:04:44.689Z,27.30
2018-07-07T20:07:13.992Z,27.30
2018-07-07T20:09:43.473Z,27.30
2018-07-07T20:12:12.898Z,27.30
2018-07-07T20:14:42.229Z,27.30
2018-07-07T20:17:12.977Z,27.30
2018-07-07T20:20:58.575Z,27.30
2018-07-07T20:23:29.658Z,27.30
2018-07-07T20:26:04.014Z,27.30
2018-07-07T20:28:38.669Z,27.30
2018-07-07T20:31:08.061Z,27.30
2018-07-07T20:33:37.396Z,27.30
2018-07-07T20:38:35.592Z,27.30
2018-07-07T20:41:04.991Z,27.40
2018-07-07T20:43:34.368Z,27.40
2018-07-07T20:46:03.647Z,27.40
2018-07-07T20:48:33.159Z,27.40
2018-07-07T20:51:02.453Z,27.40
2018-07-07T20:53:31.750Z,27.40
2018-07-07T20:56:01.113Z,27.40
2018-07-07T20:58:30.406Z,27.40
2018-07-07T21:00:59.780Z,27.40
2018-07-07T21:03:29.254Z,27.40
2018-07-07T21:05:58.576Z,27.40
2018-07-07T21:08:27.984Z,27.40
2018-07-07T21:10:57.342Z,27.40
2018-07-07T21:13:27.375Z,27.40
2018-07-07T21:15:56.741Z,27.30
2018-07-07T21:18:26.055Z,27.30
2018-07-07T21:20:55.425Z,27.30
2018-07-07T21:25:53.588Z,27.30
2018-07-07T21:28:22.972Z,27.30
2018-07-07T21:30:52.296Z,27.30
2018-07-07T21:33:21.637Z,27.30
2018-07-07T21:35:51.043Z,27.30
2018-07-07T21:38:20.369Z,27.30
2018-07-07T21:40:49.703Z,27.30
2018-07-07T21:43:19.067Z,27.30
2018-07-07T21:45:48.485Z,27.20
2018-07-07T21:48:17.865Z,27.20
2018-07-07T21:50:47.226Z,27.20
2018-07-07T21:55:45.535Z,27.20
2018-07-07T21:58:20.080Z,27.30
2018-07-07T22:01:05.492Z,27.30
2018-07-07T22:03:39.929Z,27.30
2018-07-07T22:06:11.726Z,27.30
2018-07-07T22:08:41.086Z,27.30
2018-07-07T22:11:10.422Z,27.40
2018-07-07T22:13:39.786Z,27.40
2018-07-07T22:16:09.145Z,27.40
2018-07-07T22:18:38.472Z,27.40
2018-07-07T22:21:18.633Z,27.40
2018-07-07T22:23:47.934Z,27.40
2018-07-07T22:26:17.309Z,27.40
2018-07-07T22:28:46.848Z,27.40
2018-07-07T22:31:16.223Z,27.40
2018-07-07T22:33:45.603Z,27.40
2018-07-07T22:36:20.132Z,27.30
2018-07-07T22:38:54.653Z,27.20
2018-07-07T22:41:33.643Z,27.30
2018-07-07T22:46:31.772Z,27.00
2018-07-07T22:49:01.087Z,27.00
2018-07-07T22:51:30.479Z,27.00
2018-07-07T22:53:59.789Z,26.90
2018-07-07T22:56:29.093Z,26.90
2018-07-07T22:58:58.723Z,26.90
2018-07-07T23:01:28.076Z,26.90
2018-07-07T23:03:57.461Z,26.80
2018-07-07T23:06:26.874Z,26.90
2018-07-07T23:08:56.206Z,26.90
2018-07-07T23:11:25.525Z,26.90
2018-07-07T23:13:55.047Z,26.90
2018-07-07T23:18:53.428Z,26.90
2018-07-07T23:21:22.885Z,27.00
2018-07-07T23:23:52.263Z,26.90
2018-07-07T23:26:21.595Z,26.90
2018-07-07T23:28:51.121Z,26.90
2018-07-07T23:31:20.490Z,26.90
2018-07-07T23:33:50.235Z,26.90
2018-07-07T23:36:19.557Z,26.90
2018-07-07T23:38:48.958Z,26.90
2018-07-07T23:41:18.366Z,26.90
2018-07-07T23:43:47.742Z,26.90
2018-07-07T23:46:17.109Z,26.90
2018-07-07T23:48:46.471Z,26.90
2018-07-07T23:51:15.982Z,26.90
2018-07-07T23:56:14.113Z,26.90
2018-07-07T23:58:43.463Z,26.90
